createdAt,value
2023-04-15T00:00:10.794Z,6.12
2023-04-15T00:03:21.004Z,6.13
2023-04-15T00:06:23.660Z,6.17
2023-04-15T00:09:35.875Z,6.22
2023-04-15T00:12:38.281Z,6.29
2023-04-15T00:15:41.003Z,6.21
2023-04-15T00:18:43.282Z,6.24
2023-04-15T00:21:45.936Z,6.24
2023-04-15T00:24:50.794Z,6.20
2023-04-15T00:27:53.075Z,6.27
2023-04-15T00:30:55.456Z,6.37
2023-04-15T00:33:58.573Z,6.40
2023-04-15T00:37:06.292Z,6.42
2023-04-15T00:40:16.353Z,6.39
2023-04-15T00:43:18.858Z,6.56
2023-04-15T00:46:22.755Z,6.54
2023-04-15T00:49:25.591Z,6.56
2023-04-15T00:52:27.834Z,6.59
2023-04-15T00:55:30.264Z,6.55
2023-04-15T00:58:37.423Z,6.59
2023-04-15T01:01:40.909Z,6.57
2023-04-15T01:04:43.569Z,6.58
2023-04-15T01:07:49.048Z,6.54
2023-04-15T01:11:03.700Z,6.54
2023-04-15T01:14:10.044Z,6.56
2023-04-15T01:17:13.391Z,6.60
2023-04-15T01:20:18.224Z,6.59
2023-04-15T01:23:23.015Z,6.59
2023-04-15T01:26:27.671Z,6.56
2023-04-15T01:29:32.618Z,6.60
2023-04-15T01:32:35.020Z,6.68
2023-04-15T01:35:39.493Z,6.78
2023-04-15T01:38:41.793Z,6.71
2023-04-15T01:41:44.756Z,6.66
2023-04-15T01:44:49.335Z,6.70
2023-04-15T01:47:54.184Z,6.74
2023-04-15T01:51:04.384Z,6.82
2023-04-15T01:54:07.658Z,6.79
2023-04-15T01:57:12.798Z,6.69
2023-04-15T02:00:18.321Z,6.73
2023-04-15T02:03:20.839Z,6.71
2023-04-15T02:06:25.509Z,6.69
2023-04-15T02:09:27.986Z,6.67
2023-04-15T02:12:30.635Z,6.73
2023-04-15T02:15:33.398Z,6.75
2023-04-15T02:18:35.632Z,6.73
2023-04-15T02:21:37.980Z,6.77
2023-04-15T02:24:40.341Z,6.80
2023-04-15T02:27:43.958Z,6.80
2023-04-15T02:30:52.787Z,6.61
2023-04-15T02:33:58.046Z,6.80
2023-04-15T02:37:01.222Z,6.80
2023-04-15T02:40:06.078Z,6.78
2023-04-15T02:43:10.784Z,6.81
2023-04-15T02:46:15.404Z,6.87
2023-04-15T02:49:17.899Z,6.86
2023-04-15T02:52:21.280Z,6.82
2023-04-15T02:55:23.784Z,6.80
2023-04-15T02:58:26.766Z,6.81
2023-04-15T03:01:29.116Z,6.76
2023-04-15T03:04:34.455Z,6.74
2023-04-15T03:07:36.790Z,6.75
2023-04-15T03:10:39.124Z,6.65
2023-04-15T03:13:43.215Z,6.72
2023-04-15T03:16:59.656Z,6.78
2023-04-15T03:20:06.031Z,6.97
2023-04-15T03:23:08.520Z,6.96
2023-04-15T03:26:23.641Z,6.85
2023-04-15T03:29:28.464Z,6.96
2023-04-15T03:32:34.870Z,7.01
2023-04-15T03:35:40.049Z,7.00
2023-04-15T03:38:42.835Z,7.08
2023-04-15T03:41:47.388Z,7.11
2023-04-15T03:44:52.303Z,7.11
2023-04-15T03:47:54.596Z,7.09
2023-04-15T03:50:59.199Z,7.10
2023-04-15T03:54:06.409Z,7.00
2023-04-15T03:57:08.706Z,7.08
2023-04-15T04:00:11.131Z,7.13
2023-04-15T04:03:16.341Z,6.97
2023-04-15T04:06:21.015Z,7.10
2023-04-15T04:09:23.287Z,7.10
2023-04-15T04:12:25.742Z,7.10
2023-04-15T04:15:28.160Z,7.19
2023-04-15T04:18:33.808Z,7.19
2023-04-15T04:21:39.704Z,6.98
2023-04-15T04:24:41.871Z,7.06
2023-04-15T04:27:48.778Z,7.12
2023-04-15T04:30:53.257Z,7.16
2023-04-15T04:33:55.542Z,7.09
2023-04-15T04:36:57.791Z,7.15
2023-04-15T04:40:00.060Z,7.24
2023-04-15T04:43:02.517Z,7.21
2023-04-15T04:46:04.843Z,7.36
2023-04-15T04:49:07.105Z,7.47
2023-04-15T04:52:11.771Z,7.60
2023-04-15T04:55:16.790Z,7.70
2023-04-15T04:58:19.078Z,7.93
2023-04-15T05:01:23.723Z,8.25
2023-04-15T05:04:26.510Z,8.56
2023-04-15T05:07:31.224Z,8.47
2023-04-15T05:10:33.655Z,8.53
2023-04-15T05:13:38.680Z,8.45
2023-04-15T05:16:40.944Z,8.46
2023-04-15T05:19:48.250Z,8.59
2023-04-15T05:22:50.736Z,8.56
2023-04-15T05:25:55.695Z,8.79
2023-04-15T05:28:58.015Z,8.81
2023-04-15T05:32:06.175Z,8.80
2023-04-15T05:35:08.625Z,8.81
2023-04-15T05:38:13.143Z,8.80
2023-04-15T05:41:19.887Z,8.76
2023-04-15T05:44:24.828Z,8.76
2023-04-15T05:47:29.490Z,8.56
2023-04-15T05:50:33.861Z,8.59
2023-04-15T05:53:41.734Z,8.59
2023-04-15T05:56:44.138Z,8.69
2023-04-15T05:59:52.375Z,8.88
2023-04-15T06:02:56.189Z,9.00
2023-04-15T06:06:05.792Z,9.01
2023-04-15T06:09:11.230Z,8.99
2023-04-15T06:12:13.921Z,8.94
2023-04-15T06:15:17.140Z,9.16
2023-04-15T06:18:22.267Z,9.33
2023-04-15T06:21:24.744Z,9.29
2023-04-15T06:24:29.333Z,9.75
2023-04-15T06:27:32.080Z,10.04
2023-04-15T06:30:35.979Z,10.45
2023-04-15T06:33:38.416Z,11.26
2023-04-15T06:36:41.755Z,11.46
2023-04-15T06:39:46.387Z,11.57
2023-04-15T06:42:48.700Z,11.20
2023-04-15T06:45:51.754Z,10.91
2023-04-15T06:48:54.026Z,11.32
2023-04-15T06:51:56.472Z,11.46
2023-04-15T06:55:00.954Z,11.93
2023-04-15T06:58:03.512Z,12.25
2023-04-15T07:01:06.052Z,12.59
2023-04-15T07:04:08.734Z,12.52
2023-04-15T07:07:13.424Z,12.61
2023-04-15T07:10:18.105Z,12.59
2023-04-15T07:13:22.829Z,12.93
2023-04-15T07:16:26.611Z,14.03
2023-04-15T07:19:30.113Z,14.77
2023-04-15T07:22:32.963Z,15.25
2023-04-15T07:25:35.484Z,15.33
2023-04-15T07:28:37.845Z,15.13
2023-04-15T07:31:40.856Z,15.82
2023-04-15T07:34:43.198Z,15.42
2023-04-15T07:37:48.611Z,15.93
2023-04-15T07:40:50.904Z,16.18
2023-04-15T07:43:53.141Z,15.97
2023-04-15T07:46:58.199Z,16.58
2023-04-15T07:50:00.621Z,16.71
2023-04-15T07:53:05.729Z,15.62
2023-04-15T07:56:08.232Z,15.21
2023-04-15T07:59:10.570Z,14.94
2023-04-15T08:02:12.964Z,14.59
2023-04-15T08:05:17.791Z,14.61
2023-04-15T08:08:22.848Z,15.38
2023-04-15T08:11:27.785Z,15.11
2023-04-15T08:14:32.292Z,14.74
2023-04-15T08:17:35.246Z,14.12
2023-04-15T08:20:39.704Z,14.35
2023-04-15T08:23:42.743Z,14.26
2023-04-15T08:26:47.978Z,13.91
2023-04-15T08:29:50.266Z,13.76
2023-04-15T08:32:57.916Z,14.61
2023-04-15T08:36:02.455Z,15.52
2023-04-15T08:39:05.059Z,15.52
2023-04-15T08:42:17.423Z,14.54
2023-04-15T08:45:24.579Z,13.63
2023-04-15T08:48:32.767Z,13.20
2023-04-15T08:51:35.541Z,13.61
2023-04-15T08:54:38.829Z,15.44
2023-04-15T08:57:43.846Z,14.93
2023-04-15T09:00:48.838Z,14.35
2023-04-15T09:03:57.267Z,14.03
2023-04-15T09:07:00.685Z,14.75
2023-04-15T09:10:07.451Z,15.13
2023-04-15T09:13:12.398Z,14.58
2023-04-15T09:16:14.745Z,14.39
2023-04-15T09:19:26.450Z,14.03
2023-04-15T09:22:32.574Z,14.21
2023-04-15T09:25:38.046Z,14.25
2023-04-15T09:28:46.157Z,14.33
2023-04-15T09:31:51.553Z,14.99
2023-04-15T09:34:53.759Z,14.67
2023-04-15T09:38:07.922Z,14.39
2023-04-15T09:41:19.742Z,14.13
2023-04-15T09:44:28.005Z,14.64
2023-04-15T09:47:32.326Z,14.94
2023-04-15T09:50:41.479Z,14.59
2023-04-15T09:53:43.796Z,15.03
2023-04-15T09:56:46.339Z,14.71
2023-04-15T09:59:48.637Z,14.39
2023-04-15T10:02:52.035Z,14.38
2023-04-15T10:05:56.718Z,14.22
2023-04-15T10:08:59.524Z,13.92
2023-04-15T10:12:04.261Z,13.80
2023-04-15T10:15:09.980Z,13.95
2023-04-15T10:18:20.144Z,13.58
2023-04-15T10:21:23.654Z,13.41
2023-04-15T10:24:26.308Z,13.39
2023-04-15T10:27:29.217Z,13.33
2023-04-15T10:30:33.044Z,13.38
2023-04-15T10:33:36.350Z,13.53
2023-04-15T10:36:41.606Z,13.54
2023-04-15T10:39:44.454Z,13.38
2023-04-15T10:42:49.700Z,13.33
2023-04-15T10:45:56.271Z,13.52
2023-04-15T10:49:06.721Z,13.49
2023-04-15T10:52:09.000Z,13.60
2023-04-15T10:55:11.212Z,13.66
2023-04-15T10:58:15.280Z,13.47
2023-04-15T11:01:23.387Z,13.14
2023-04-15T11:04:57.677Z,12.87
2023-04-15T11:08:00.147Z,12.55
2023-04-15T11:11:02.471Z,12.47
2023-04-15T11:14:07.638Z,12.77
2023-04-15T11:17:10.232Z,12.84
2023-04-15T11:20:16.049Z,13.09
2023-04-15T11:23:20.002Z,13.26
2023-04-15T11:26:27.203Z,13.31
2023-04-15T11:29:35.045Z,13.49
2023-04-15T11:32:37.403Z,13.47
2023-04-15T11:35:45.014Z,13.61
2023-04-15T11:38:47.655Z,13.62
2023-04-15T11:41:50.005Z,13.55
2023-04-15T11:45:07.564Z,13.24
2023-04-15T11:48:18.344Z,13.26
2023-04-15T11:51:22.682Z,13.16
2023-04-15T11:54:25.306Z,12.85
2023-04-15T11:57:32.108Z,12.90
2023-04-15T12:00:35.789Z,13.07
2023-04-15T12:03:42.511Z,13.13
2023-04-15T12:06:49.567Z,13.08
2023-04-15T12:09:59.916Z,13.39
2023-04-15T12:13:10.002Z,13.40
2023-04-15T12:16:12.350Z,13.52
2023-04-15T12:19:22.800Z,13.65
2023-04-15T12:22:27.272Z,13.80
2023-04-15T12:25:36.039Z,13.68
2023-04-15T12:28:41.956Z,13.52
2023-04-15T12:31:52.177Z,13.36
2023-04-15T12:34:58.241Z,13.36
2023-04-15T12:38:00.508Z,13.33
2023-04-15T12:41:02.784Z,13.26
2023-04-15T12:44:10.070Z,13.25
2023-04-15T12:47:15.835Z,13.27
2023-04-15T12:50:18.685Z,13.13
2023-04-15T12:53:21.010Z,13.25
2023-04-15T12:56:28.345Z,13.35
2023-04-15T12:59:30.716Z,13.22
2023-04-15T13:02:33.374Z,13.27
2023-04-15T13:05:39.858Z,13.32
2023-04-15T13:08:57.499Z,13.52
2023-04-15T13:12:01.331Z,13.48
2023-04-15T13:15:07.483Z,13.34
2023-04-15T13:18:12.073Z,13.17
2023-04-15T13:21:17.224Z,13.23
2023-04-15T13:24:19.559Z,13.17
2023-04-15T13:27:22.368Z,13.04
2023-04-15T13:30:27.764Z,13.31
2023-04-15T13:33:30.464Z,13.51
2023-04-15T13:36:35.352Z,13.54
2023-04-15T13:39:37.654Z,13.32
2023-04-15T13:42:40.015Z,13.29
2023-04-15T13:45:42.356Z,13.21
2023-04-15T13:48:44.651Z,13.24
2023-04-15T13:51:47.033Z,13.26
2023-04-15T13:55:08.612Z,13.09
2023-04-15T13:58:14.735Z,13.20
2023-04-15T14:01:19.341Z,13.34
2023-04-15T14:04:22.002Z,13.33
2023-04-15T14:07:26.869Z,13.41
2023-04-15T14:10:29.153Z,13.40
2023-04-15T14:13:31.466Z,13.19
2023-04-15T14:16:34.481Z,13.29
2023-04-15T14:19:39.916Z,13.34
2023-04-15T14:22:43.085Z,13.35
2023-04-15T14:25:47.934Z,13.13
2023-04-15T14:28:51.008Z,12.99
2023-04-15T14:32:07.295Z,12.96
2023-04-15T14:35:16.590Z,12.56
2023-04-15T14:38:18.981Z,12.68
2023-04-15T14:41:22.463Z,12.72
2023-04-15T14:44:27.018Z,12.70
2023-04-15T14:47:30.323Z,12.84
2023-04-15T14:50:37.556Z,12.87
2023-04-15T14:53:42.251Z,12.89
2023-04-15T14:56:48.342Z,13.02
2023-04-15T14:59:56.072Z,12.78
2023-04-15T15:02:59.017Z,12.63
2023-04-15T15:06:01.424Z,12.64
2023-04-15T15:09:03.938Z,12.64
2023-04-15T15:12:13.866Z,12.82
2023-04-15T15:15:28.512Z,12.99
2023-04-15T15:18:33.605Z,13.07
2023-04-15T15:21:36.060Z,13.04
2023-04-15T15:24:41.169Z,12.81
2023-04-15T15:27:46.083Z,12.87
2023-04-15T15:30:54.926Z,12.73
2023-04-15T15:33:59.721Z,12.66
2023-04-15T15:37:02.126Z,12.62
2023-04-15T15:40:08.287Z,12.58
2023-04-15T15:43:13.078Z,12.41
2023-04-15T15:46:19.897Z,12.46
2023-04-15T15:49:26.462Z,12.43
2023-04-15T15:52:28.971Z,12.48
2023-04-15T15:55:33.817Z,12.52
2023-04-15T15:58:38.491Z,12.60
2023-04-15T16:01:41.593Z,12.42
2023-04-15T16:04:44.152Z,12.40
2023-04-15T16:07:46.572Z,12.28
2023-04-15T16:10:48.946Z,12.21
2023-04-15T16:13:54.031Z,12.27
2023-04-15T16:16:56.370Z,12.30
2023-04-15T16:20:04.280Z,12.23
2023-04-15T16:23:13.179Z,12.15
2023-04-15T16:26:15.504Z,12.18
2023-04-15T16:29:23.009Z,12.17
2023-04-15T16:32:25.671Z,12.14
2023-04-15T16:35:33.359Z,12.00
2023-04-15T16:38:36.855Z,11.96
2023-04-15T16:41:39.193Z,11.87
2023-04-15T16:44:43.787Z,11.76
2023-04-15T16:47:48.459Z,11.78
2023-04-15T16:50:53.196Z,11.86
2023-04-15T16:53:58.050Z,11.81
2023-04-15T16:57:02.082Z,11.82
2023-04-15T17:00:08.831Z,11.79
2023-04-15T17:03:11.308Z,11.80
2023-04-15T17:06:15.600Z,11.80
2023-04-15T17:09:20.024Z,11.81
2023-04-15T17:12:27.254Z,11.77
2023-04-15T17:15:29.814Z,11.68
2023-04-15T17:18:32.175Z,11.65
2023-04-15T17:21:34.609Z,11.57
2023-04-15T17:24:42.069Z,11.58
2023-04-15T17:27:44.331Z,11.44
2023-04-15T17:30:51.363Z,11.36
2023-04-15T17:34:00.475Z,11.26
2023-04-15T17:37:13.941Z,11.10
2023-04-15T17:40:18.467Z,11.03
2023-04-15T17:43:25.770Z,11.04
2023-04-15T17:46:28.102Z,11.07
2023-04-15T17:49:31.175Z,11.05
2023-04-15T17:52:33.893Z,11.07
2023-04-15T17:55:41.152Z,11.09
2023-04-15T17:58:48.147Z,11.05
2023-04-15T18:01:50.730Z,11.01
2023-04-15T18:04:53.238Z,11.01
2023-04-15T18:07:57.797Z,10.97
2023-04-15T18:11:00.099Z,10.94
2023-04-15T18:14:04.238Z,10.94
2023-04-15T18:17:09.148Z,10.89
2023-04-15T18:20:15.575Z,10.90
2023-04-15T18:23:20.174Z,10.90
2023-04-15T18:26:22.656Z,10.87
2023-04-15T18:29:25.549Z,10.86
2023-04-15T18:32:31.808Z,10.90
2023-04-15T18:35:35.211Z,10.86
2023-04-15T18:38:39.779Z,10.83
2023-04-15T18:41:42.078Z,10.83
2023-04-15T18:44:49.107Z,10.78
2023-04-15T18:47:56.927Z,10.67
2023-04-15T18:50:59.459Z,10.75
2023-04-15T18:54:06.615Z,10.72
2023-04-15T18:57:08.897Z,10.67
2023-04-15T19:00:12.074Z,10.50
2023-04-15T19:03:14.750Z,10.62
2023-04-15T19:06:22.851Z,10.62
2023-04-15T19:09:26.282Z,10.54
2023-04-15T19:12:29.767Z,10.51
2023-04-15T19:15:34.469Z,10.42
2023-04-15T19:18:41.990Z,10.39
2023-04-15T19:21:46.684Z,10.33
2023-04-15T19:24:48.962Z,10.31
2023-04-15T19:27:52.242Z,10.33
2023-04-15T19:30:54.883Z,10.26
2023-04-15T19:33:59.941Z,10.24
2023-04-15T19:37:02.361Z,10.28
2023-04-15T19:40:07.442Z,10.23
2023-04-15T19:43:12.692Z,10.23
2023-04-15T19:46:17.475Z,10.20
2023-04-15T19:49:19.977Z,10.26
2023-04-15T19:52:22.431Z,10.16
2023-04-15T19:55:26.504Z,10.20
2023-04-15T19:58:28.879Z,10.15
2023-04-15T20:01:34.001Z,10.20
2023-04-15T20:04:36.384Z,10.17
2023-04-15T20:07:42.598Z,10.23
2023-04-15T20:10:49.746Z,10.23
2023-04-15T20:13:52.076Z,10.26
2023-04-15T20:16:54.382Z,10.28
2023-04-15T20:19:56.661Z,10.28
2023-04-15T20:22:58.904Z,10.34
2023-04-15T20:26:05.593Z,10.36
2023-04-15T20:29:10.404Z,10.33
2023-04-15T20:32:12.915Z,10.37
2023-04-15T20:35:15.424Z,10.31
2023-04-15T20:38:17.687Z,10.30
2023-04-15T20:41:21.617Z,10.34
2023-04-15T20:44:23.899Z,10.25
2023-04-15T20:47:26.414Z,10.21
2023-04-15T20:50:28.831Z,10.21
2023-04-15T20:53:31.150Z,10.16
2023-04-15T20:56:35.817Z,10.16
2023-04-15T20:59:45.096Z,10.05
2023-04-15T21:02:49.857Z,10.08
2023-04-15T21:05:52.236Z,10.08
2023-04-15T21:08:54.484Z,10.13
2023-04-15T21:12:02.179Z,10.10
2023-04-15T21:15:05.110Z,10.06
2023-04-15T21:18:07.376Z,10.00
2023-04-15T21:21:09.623Z,10.04
2023-04-15T21:24:11.949Z,10.05
2023-04-15T21:27:14.378Z,9.98
2023-04-15T21:30:19.187Z,9.93
2023-04-15T21:33:24.096Z,9.88
2023-04-15T21:36:28.659Z,9.78
2023-04-15T21:39:31.424Z,9.82
2023-04-15T21:42:38.578Z,9.80
2023-04-15T21:46:21.006Z,9.77
2023-04-15T21:49:09.083Z,9.73
2023-04-15T21:52:11.474Z,9.77
2023-04-15T21:55:13.698Z,9.75
2023-04-15T21:58:18.143Z,9.71
2023-04-15T22:01:22.726Z,9.67
2023-04-15T22:04:25.262Z,9.65
2023-04-15T22:07:30.420Z,9.56
2023-04-15T22:10:34.897Z,9.55
2023-04-15T22:13:37.176Z,9.63
2023-04-15T22:16:39.480Z,9.59
2023-04-15T22:19:41.937Z,9.66
2023-04-15T22:22:44.820Z,9.67
2023-04-15T22:25:47.463Z,9.66
2023-04-15T22:28:49.851Z,9.69
2023-04-15T22:31:52.686Z,9.67
2023-04-15T22:34:57.524Z,9.66
2023-04-15T22:38:02.643Z,9.59
2023-04-15T22:41:04.998Z,9.65
2023-04-15T22:44:09.844Z,9.48
2023-04-15T22:47:12.095Z,9.57
2023-04-15T22:50:16.949Z,9.48
2023-04-15T22:53:21.466Z,9.54
2023-04-15T22:56:24.962Z,9.56
2023-04-15T22:59:27.220Z,9.58
2023-04-15T23:02:29.582Z,9.56
2023-04-15T23:05:32.225Z,9.37
2023-04-15T23:08:37.194Z,9.41
2023-04-15T23:11:39.459Z,9.36
2023-04-15T23:14:41.852Z,9.19
2023-04-15T23:17:44.210Z,9.27
2023-04-15T23:20:51.357Z,9.28
2023-04-15T23:23:58.404Z,9.19
2023-04-15T23:27:02.855Z,9.11
2023-04-15T23:30:06.074Z,8.99
2023-04-15T23:33:08.380Z,9.14
2023-04-15T23:36:12.891Z,9.08
2023-04-15T23:39:15.137Z,9.06
2023-04-15T23:42:19.670Z,9.09
2023-04-15T23:45:26.477Z,8.98
2023-04-15T23:48:30.112Z,9.21
2023-04-15T23:51:34.673Z,9.14
2023-04-15T23:54:36.992Z,9.01
2023-04-15T23:57:43.604Z,8.97
